アピア の空港の天気 - METARとTAF

ファレオロ国際空港(サモア) ( NSFA / APW ) - サモア アピア
飛行場実況気象(Metar)
観測時間04/22 05:00 WSST (04/21 16:00 UTC)
風向・風速東 3m/s
視程10km以上
天気現象弱い雨
少しの雲 雲底高度 610m
全天の4割程度の雲 雲底高度 1220m
全天を覆う雲 雲底高度 3050m
気温25℃
湿度89%
気圧1010hPa
METARNSFA 211600Z 08006KT 9999 -RA FEW020 SCT040 OVC100 25/23 Q1010
過去の天気等 Google飛行場航空写真 Wunderground天気予報

過去48時間のMETAR

飛行場予報(TAF)
発表時間: 4/22 05:59 WSST (4/21 16:59 UTC)
予報対象時間: 22日6時 WSST ~ 23日1時 WSST
風向・風速東 2m/s
視程10km以上
少しの雲 雲底高度 610m
全天の4割程度の雲 雲底高度 1220m
全天を覆う雲 雲底高度 3050m
22日7時 WSST ~ 22日9時 WSST に 確率 30% で一時的に
視程5000m
天気現象しゅう雨
全天の8割程度の雲 雲底高度 460m
22日15時 WSST ~ 22日23時 WSST に 確率 30% で一時的に
視程3000m
天気現象雷雨
全天の8割程度の雲 雲底高度 460m
少しの積乱雲 雲底高度 520m
TAF AMD NSFA 211659Z 2117/2212 10004KT 9999 FEW020 SCT040 OVC100
PROB30 TEMPO 2118/2120 5000 SHRA BKN015
PROB30 TEMPO 2202/2210 3000 TSRA BKN015 FEW017CB